Time;durP1;ratioP1;P1;durP2;ratioP2;P2;SDS_P1;SDS_P2;PMS_P1;PMS_P2;Temp;Humidity;BMP_temperature;BMP_pressure;BME280_temperature;BME280_humidity;BME280_pressure;Samples;Min_cycle;Max_cycle;Signal;HPM_P1;HPM_P2
2022/04/12 00:01:35;;;;;;;0.80;0.80;;;5.10;49.90;;;3.84;35.99;95034.03;5035908;28;20206;-85
2022/04/12 00:04:04;;;;;;;0.70;0.70;;;5.10;50.00;;;3.84;35.85;95032.25;5052461;28;20208;-85
2022/04/12 00:06:31;;;;;;;0.70;0.70;;;5.00;50.10;;;3.83;35.75;95024.59;5036743;28;20670;-84
2022/04/12 00:08:59;;;;;;;0.68;0.68;;;5.00;50.20;;;3.80;35.96;95023.13;5053491;28;20236;-85
2022/04/12 00:11:27;;;;;;;0.80;0.80;;;4.90;50.20;;;3.78;36.03;95017.25;5022879;28;20457;-86
2022/04/12 00:13:54;;;;;;;0.60;0.60;;;4.90;50.50;;;3.78;36.03;95019.06;5039544;28;20310;-85
2022/04/12 00:16:21;;;;;;;0.80;0.80;;;5.00;50.50;;;3.77;35.85;95014.81;5023348;28;20198;-84
2022/04/12 00:19:04;;;;;;;0.80;0.80;;;4.90;50.20;;;3.73;36.02;95011.69;5036155;28;20625;-85
2022/04/12 00:21:34;;;;;;;0.80;0.80;;;4.90;50.40;;;3.70;35.59;95019.78;5022748;28;20282;-85
2022/04/12 00:24:07;;;;;;;0.80;0.80;;;4.90;50.40;;;3.67;35.96;95009.69;5040082;28;20211;-86
2022/04/12 00:26:34;;;;;;;0.80;0.80;;;4.90;51.00;;;3.64;36.04;95012.59;5072659;28;20730;-85
2022/04/12 00:29:02;;;;;;;0.80;0.80;;;4.90;50.50;;;3.59;35.98;95005.25;5004553;28;20650;-85
2022/04/12 00:31:31;;;;;;;0.80;0.80;;;4.80;50.90;;;3.60;36.14;95019.84;5019993;28;20208;-85
2022/04/12 00:33:59;;;;;;;0.80;0.80;;;4.80;50.90;;;3.57;36.20;95025.31;5020091;28;20243;-85
2022/04/12 00:36:27;;;;;;;0.70;0.70;;;4.80;50.90;;;3.53;36.29;95026.59;5036141;28;20275;-85
2022/04/12 00:38:54;;;;;;;0.75;0.75;;;4.80;51.00;;;3.53;36.12;95029.19;5031524;28;20595;-85
2022/04/12 00:41:21;;;;;;;0.70;0.70;;;4.70;50.80;;;3.43;35.98;95008.50;5039187;28;20187;-86
2022/04/12 00:43:48;;;;;;;0.70;0.70;;;4.70;50.90;;;3.46;36.28;95017.75;5038809;28;20582;-85
2022/04/12 00:46:16;;;;;;;0.70;0.70;;;4.70;50.80;;;3.47;36.61;95024.56;5037239;28;20202;-85
2022/04/12 00:48:43;;;;;;;0.80;0.80;;;4.70;50.80;;;3.40;36.78;95011.34;5035656;28;20710;-85
2022/04/12 00:51:11;;;;;;;0.68;0.68;;;4.70;50.90;;;3.38;36.89;95018.44;5064887;28;20200;-85
2022/04/12 00:53:39;;;;;;;0.80;0.80;;;4.60;50.80;;;3.41;36.97;95022.56;5024626;28;20306;-85
2022/04/12 00:56:06;;;;;;;0.80;0.80;;;4.60;50.70;;;3.39;36.87;95022.69;5024894;28;20283;-85
2022/04/12 00:58:33;;;;;;;0.60;0.60;;;4.60;50.70;;;3.32;36.88;95016.44;5025313;28;20185;-84
2022/04/12 01:01:00;;;;;;;0.80;0.80;;;4.50;50.70;;;3.20;36.79;95005.47;5026310;28;20227;-84
2022/04/12 01:03:27;;;;;;;0.70;0.70;;;4.50;50.70;;;3.12;37.02;94995.00;5023971;28;20196;-85
2022/04/12 01:05:57;;;;;;;0.70;0.70;;;4.50;50.90;;;3.27;37.27;95016.91;5010305;28;20274;-85
2022/04/12 01:08:24;;;;;;;0.80;0.80;;;4.50;51.20;;;3.23;37.08;95012.13;5004867;28;20730;-86
2022/04/12 01:10:52;;;;;;;0.70;0.70;;;4.50;51.20;;;3.26;37.13;95020.44;5060898;28;20736;-85
2022/04/12 01:13:20;;;;;;;0.80;0.80;;;4.40;51.10;;;3.26;37.49;95017.03;5040659;28;20204;-85
2022/04/12 01:15:47;;;;;;;0.70;0.70;;;4.40;51.30;;;3.14;37.34;95000.88;5012132;28;20634;-85
2022/04/12 01:18:14;;;;;;;0.90;0.90;;;4.40;51.60;;;3.08;37.24;94997.06;5012132;28;20191;-85
2022/04/12 01:20:42;;;;;;;0.63;0.63;;;4.40;51.60;;;3.14;37.42;95004.25;5023865;28;20232;-85
2022/04/12 01:23:15;;;;;;;0.80;0.80;;;4.30;51.60;;;3.17;37.58;95019.53;5041068;28;20200;-83
2022/04/12 01:25:42;;;;;;;0.80;0.80;;;4.30;51.90;;;3.16;37.50;95011.88;5042389;28;20216;-84
2022/04/12 01:28:11;;;;;;;0.70;0.70;;;4.30;51.80;;;3.12;37.75;95013.94;5007207;28;20200;-86
2022/04/12 01:30:39;;;;;;;0.80;0.80;;;4.40;52.10;;;3.10;37.69;95012.47;5050434;28;20208;-85
2022/04/12 01:33:07;;;;;;;0.70;0.70;;;4.30;51.90;;;3.08;37.60;95017.00;5028788;28;20192;-85
2022/04/12 01:35:35;;;;;;;0.80;0.80;;;4.30;52.00;;;3.06;37.60;95013.72;5051907;28;20239;-86
2022/04/12 01:38:02;;;;;;;0.80;0.80;;;4.30;51.90;;;3.02;37.53;95015.78;5050922;28;20202;-86
2022/04/12 01:40:29;;;;;;;0.80;0.80;;;4.20;51.90;;;2.97;37.61;95007.63;5038268;28;20228;-85
2022/04/12 01:42:57;;;;;;;0.80;0.80;;;4.20;51.80;;;2.97;37.53;95020.56;5022139;28;20274;-85
2022/04/12 01:45:24;;;;;;;0.80;0.80;;;4.20;51.80;;;2.94;37.60;95013.06;5034321;28;20235;-84
2022/04/12 01:47:52;;;;;;;0.80;0.80;;;4.20;51.90;;;2.92;37.47;95022.75;5050663;28;20696;-86
2022/04/12 01:50:20;;;;;;;0.70;0.70;;;4.10;51.70;;;2.90;37.61;95014.31;5066275;28;20220;-84
2022/04/12 01:52:47;;;;;;;0.70;0.70;;;4.10;51.70;;;2.86;37.53;95013.78;5022492;28;20649;-85
2022/04/12 01:55:14;;;;;;;0.80;0.80;;;4.10;51.80;;;2.83;37.46;95014.06;5050865;28;20322;-85
2022/04/12 01:57:42;;;;;;;0.80;0.80;;;4.10;51.80;;;2.81;37.58;95016.00;5067600;28;20283;-85
2022/04/12 02:00:10;;;;;;;0.70;0.70;;;4.00;51.80;;;2.77;37.58;95020.63;5035434;28;20731;-85
2022/04/12 02:02:40;;;;;;;0.70;0.70;;;4.00;51.90;;;2.74;37.41;95020.09;5045681;28;20209;-86
2022/04/12 02:05:08;;;;;;;0.80;0.80;;;4.00;51.90;;;2.69;37.60;95012.75;5067173;28;20238;-86
2022/04/12 02:07:35;;;;;;;0.80;0.80;;;4.00;52.00;;;2.69;37.73;95018.72;5050544;28;20201;-87
2022/04/12 02:10:04;;;;;;;0.75;0.75;;;3.90;52.00;;;2.70;38.00;95019.56;5051379;28;20219;-85
2022/04/12 02:12:31;;;;;;;0.70;0.70;;;3.90;52.30;;;2.66;37.91;95013.00;5067611;28;20196;-85
2022/04/12 02:14:59;;;;;;;0.70;0.70;;;3.90;52.30;;;2.68;38.00;95017.09;5036096;28;20251;-85
2022/04/12 02:17:26;;;;;;;0.77;0.77;;;3.90;52.30;;;2.67;37.81;95012.06;5049771;28;20705;-85
2022/04/12 02:19:54;;;;;;;0.70;0.70;;;3.90;52.40;;;2.60;37.85;94998.88;5034388;28;20219;-85
2022/04/12 02:22:21;;;;;;;0.70;0.70;;;3.90;52.40;;;2.63;37.84;95014.13;5051203;28;20192;-86
2022/04/12 02:24:48;;;;;;;0.70;0.70;;;3.80;52.30;;;2.62;38.10;95015.06;5018639;28;20259;-84
2022/04/12 02:27:16;;;;;;;0.70;0.70;;;3.80;52.30;;;2.61;37.90;95010.03;5049671;28;20666;-86
2022/04/12 02:29:43;;;;;;;0.70;0.70;;;3.80;52.30;;;2.48;38.03;94990.44;5017673;28;20242;-86
2022/04/12 02:32:10;;;;;;;0.80;0.80;;;3.80;52.40;;;2.52;38.27;94998.75;5018239;28;20204;-84
2022/04/12 02:34:37;;;;;;;0.80;0.80;;;3.80;52.50;;;2.55;38.33;95003.63;5017651;28;20219;-84
2022/04/12 02:37:05;;;;;;;0.70;0.70;;;3.80;52.60;;;2.50;38.31;94996.31;5036890;28;20203;-85
2022/04/12 02:39:32;;;;;;;0.80;0.80;;;3.70;52.60;;;2.54;38.50;95000.25;5052860;28;20318;-85
2022/04/12 02:42:00;;;;;;;0.70;0.70;;;3.70;52.70;;;2.53;38.25;95000.38;5035904;28;20204;-84
2022/04/12 02:44:28;;;;;;;0.80;0.80;;;3.80;52.90;;;2.49;38.28;94994.66;5038161;28;20227;-85
2022/04/12 02:46:54;;;;;;;0.73;0.73;;;3.70;52.70;;;2.49;38.21;94996.44;5041747;28;20653;-85
2022/04/12 02:49:22;;;;;;;0.70;0.70;;;3.70;52.70;;;2.50;38.47;95003.25;5041461;28;20217;-85
2022/04/12 02:51:50;;;;;;;0.80;0.80;;;3.70;52.80;;;2.49;38.34;95006.78;5015704;28;20198;-85
2022/04/12 02:54:18;;;;;;;0.70;0.70;;;3.70;52.90;;;2.30;38.54;94977.41;5055149;28;20227;-85
2022/04/12 02:56:45;;;;;;;0.70;0.70;;;3.70;53.00;;;2.48;38.68;95011.16;5038133;28;20678;-85
2022/04/12 02:59:12;;;;;;;0.80;0.80;;;3.70;52.90;;;2.48;38.28;95005.16;5054562;28;20248;-85
2022/04/12 03:01:39;;;;;;;0.70;0.70;;;3.70;53.10;;;2.47;38.39;95012.09;5041999;28;20701;-86
2022/04/12 03:04:06;;;;;;;0.70;0.70;;;3.70;53.10;;;2.46;38.53;95009.66;5054100;28;20582;-85
2022/04/12 03:06:33;;;;;;;0.70;0.70;;;3.60;53.00;;;2.38;38.60;94998.22;5070395;28;20204;-85
2022/04/12 03:09:00;;;;;;;0.80;0.80;;;3.70;53.30;;;2.42;38.67;95011.72;5050772;28;20220;-85
2022/04/12 03:11:27;;;;;;;0.70;0.70;;;3.60;53.20;;;2.43;38.64;95012.53;5043583;28;20198;-86
2022/04/12 03:13:54;;;;;;;0.80;0.80;;;3.60;53.20;;;2.42;38.71;95013.47;5041234;28;20849;-85
2022/04/12 03:16:21;;;;;;;0.80;0.80;;;3.60;53.30;;;2.41;38.83;95010.06;5024427;28;20206;-86
2022/04/12 03:18:48;;;;;;;0.70;0.70;;;3.60;53.40;;;2.42;38.87;95013.47;5022431;28;20286;-85
2022/04/12 03:21:16;;;;;;;0.80;0.80;;;3.60;53.50;;;2.40;38.50;95011.88;5040780;28;20222;-85
2022/04/12 03:23:43;;;;;;;0.80;0.80;;;3.60;53.60;;;2.30;38.79;94994.72;5040614;28;20269;-86
2022/04/12 03:26:11;;;;;;;0.70;0.70;;;3.60;53.60;;;2.40;38.97;95011.03;5028134;28;20250;-85
2022/04/12 03:28:38;;;;;;;0.60;0.60;;;3.60;53.70;;;2.26;39.06;94981.22;5021042;28;20200;-86
2022/04/12 03:31:05;;;;;;;0.68;0.68;;;3.60;53.70;;;2.37;38.78;95003.56;5050048;28;20569;-85
2022/04/12 03:33:32;;;;;;;0.70;0.70;;;3.60;53.70;;;2.35;38.86;95003.66;5050394;28;20693;-85
2022/04/12 03:35:59;;;;;;;0.77;0.77;;;3.60;53.80;;;2.30;38.95;94995.50;5017928;28;20382;-85
2022/04/12 03:38:27;;;;;;;0.80;0.80;;;3.50;53.80;;;2.34;38.96;94998.63;5034621;28;20224;-84
2022/04/12 03:40:58;;;;;;;0.60;0.60;;;3.50;53.70;;;2.35;39.12;95000.28;5020908;28;20223;-85
2022/04/12 03:43:25;;;;;;;0.70;0.70;;;3.50;53.80;;;2.33;39.08;95008.19;5021575;28;20231;-85
2022/04/12 03:45:52;;;;;;;0.73;0.73;;;3.50;53.80;;;2.31;39.48;95002.31;5004277;28;20231;-85
2022/04/12 03:48:20;;;;;;;0.70;0.70;;;3.50;53.80;;;2.25;39.16;94995.13;5019256;28;20273;-85
2022/04/12 03:50:47;;;;;;;0.80;0.80;;;3.50;53.90;;;2.22;39.01;95009.16;5039366;28;20211;-85
2022/04/12 03:53:14;;;;;;;0.80;0.80;;;3.50;54.00;;;2.31;39.07;95030.00;5026227;28;20196;-84
2022/04/12 03:55:46;;;;;;;0.80;0.80;;;3.50;54.00;;;2.29;39.13;95022.34;5017845;28;20212;-83
2022/04/12 03:58:19;;;;;;;0.70;0.70;;;3.50;54.00;;;2.30;39.55;95033.53;5037026;28;20279;-84
2022/04/12 04:00:52;;;;;;;0.70;0.70;;;3.50;54.10;;;2.29;39.23;95037.88;5017355;28;20756;-83
2022/04/12 04:03:19;;;;;;;0.70;0.70;;;3.50;54.30;;;2.30;39.60;95038.72;4993571;28;20197;-83
2022/04/12 04:05:47;;;;;;;0.80;0.80;;;3.50;54.40;;;2.29;39.61;95039.66;5012949;28;20234;-83
2022/04/12 04:08:14;;;;;;;0.80;0.80;;;3.50;54.40;;;2.23;39.70;95033.25;5030267;28;20195;-82
2022/04/12 04:10:41;;;;;;;0.80;0.80;;;3.50;54.50;;;2.29;39.57;95039.66;5021267;28;20273;-84
2022/04/12 04:13:08;;;;;;;0.68;0.68;;;3.50;54.50;;;2.29;39.36;95040.47;5050042;28;20187;-84
2022/04/12 04:15:36;;;;;;;0.70;0.70;;;3.50;54.50;;;2.29;39.87;95037.88;5010975;28;20223;-83
2022/04/12 04:18:03;;;;;;;0.70;0.70;;;3.50;54.80;;;2.29;39.83;95034.47;5072892;28;20208;-84
2022/04/12 04:20:31;;;;;;;0.70;0.70;;;3.50;54.70;;;2.28;39.96;95041.41;5021490;28;20223;-83
2022/04/12 04:22:58;;;;;;;0.70;0.70;;;3.40;54.70;;;2.22;39.67;95029.84;5020528;28;20209;-83
2022/04/12 04:25:26;;;;;;;0.60;0.60;;;3.40;54.70;;;2.26;39.65;95039.91;5038868;28;20223;-83
2022/04/12 04:27:53;;;;;;;0.70;0.70;;;3.40;54.70;;;2.27;39.73;95039.81;5018366;28;20200;-83
2022/04/12 04:30:20;;;;;;;0.70;0.70;;;3.40;54.80;;;2.22;39.97;95037.63;5003190;28;20220;-84
2022/04/12 04:32:49;;;;;;;0.80;0.80;;;3.40;54.90;;;2.28;39.82;95036.22;5018648;28;20547;-83
2022/04/12 04:35:17;;;;;;;0.70;0.70;;;3.40;54.90;;;2.29;39.79;95040.47;5034260;28;20655;-83
2022/04/12 04:37:48;;;;;;;0.60;0.60;;;3.40;54.90;;;2.32;40.00;95047.13;5046788;28;20184;-84
2022/04/12 04:40:18;;;;;;;0.77;0.77;;;3.40;55.00;;;2.33;39.96;95049.59;5009868;28;20219;-84
2022/04/12 04:42:48;;;;;;;0.75;0.75;;;3.40;55.10;;;2.36;39.88;95053.69;5046556;28;20196;-84
2022/04/12 04:45:17;;;;;;;0.80;0.80;;;3.40;55.20;;;2.38;40.10;95067.28;5043297;28;20325;-83
2022/04/12 04:47:51;;;;;;;0.60;0.60;;;3.40;55.10;;;2.40;40.21;95065.38;5010242;28;20738;-82
2022/04/12 04:50:21;;;;;;;0.70;0.70;;;3.50;56.00;;;2.44;40.02;95058.16;5045025;28;20215;-83
2022/04/12 04:52:49;;;;;;;0.70;0.70;;;3.50;55.40;;;2.47;40.03;95063.88;5041432;28;20219;-83
2022/04/12 04:55:17;;;;;;;0.70;0.70;;;3.50;55.40;;;2.51;40.09;95065.22;5042227;28;20236;-82
2022/04/12 04:57:46;;;;;;;0.80;0.80;;;3.50;55.50;;;2.56;39.95;95073.44;5025964;28;20575;-83
2022/04/12 05:00:18;;;;;;;0.68;0.68;;;3.50;55.70;;;2.63;40.32;95067.69;5031709;28;20216;-84
2022/04/12 05:02:50;;;;;;;0.70;0.70;;;3.60;56.20;;;2.68;39.88;95071.47;5037990;28;20241;-83
2022/04/12 05:05:19;;;;;;;0.70;0.70;;;3.60;56.10;;;2.75;39.86;95070.91;5050263;28;20305;-83
2022/04/12 05:07:51;;;;;;;0.70;0.70;;;3.70;55.70;;;2.78;40.19;95063.69;5029847;28;20203;-84
2022/04/12 05:10:23;;;;;;;0.70;0.70;;;3.70;55.70;;;2.87;40.11;95075.81;5015884;28;20632;-84
2022/04/12 05:12:51;;;;;;;0.80;0.80;;;3.80;55.80;;;2.98;39.85;95069.66;5029508;28;20743;-83
2022/04/12 05:15:19;;;;;;;0.80;0.80;;;3.80;55.60;;;2.98;40.17;95064.47;5032157;28;20223;-83
2022/04/12 05:17:51;;;;;;;0.70;0.70;;;3.90;55.80;;;3.18;40.01;95078.16;5016212;28;20539;-84
2022/04/12 05:20:24;;;;;;;0.70;0.70;;;3.90;56.20;;;3.27;39.66;95075.69;5048000;28;20647;-83
2022/04/12 05:22:52;;;;;;;0.80;0.80;;;4.00;55.90;;;3.40;40.00;95081.34;5041745;28;20196;-84
2022/04/12 05:25:20;;;;;;;0.70;0.70;;;4.10;55.90;;;3.51;39.91;95081.16;5044786;28;20228;-84
2022/04/12 05:27:49;;;;;;;0.80;0.80;;;4.20;56.00;;;3.56;40.02;95062.59;5043448;28;20629;-83
2022/04/12 05:30:18;;;;;;;0.70;0.70;;;4.30;56.00;;;3.71;40.01;95070.72;5029943;28;20208;-83
2022/04/12 05:32:45;;;;;;;0.70;0.70;;;4.40;56.00;;;3.80;39.98;95080.19;5025376;28;20290;-84
2022/04/12 05:35:13;;;;;;;0.80;0.80;;;4.50;56.00;;;3.88;39.89;95071.69;5034280;28;20222;-83
2022/04/12 05:37:47;;;;;;;0.80;0.80;;;4.50;56.00;;;3.96;39.79;95063.19;5026674;28;20312;-84
2022/04/12 05:40:15;;;;;;;0.80;0.80;;;4.60;56.50;;;4.08;39.68;95066.38;5041327;28;20216;-83
2022/04/12 05:42:46;;;;;;;0.60;0.60;;;4.70;56.10;;;4.09;39.74;95052.41;5044146;28;20191;-83
2022/04/12 05:45:14;;;;;;;0.70;0.70;;;4.80;56.20;;;4.31;39.91;95077.94;5055959;28;20223;-84
2022/04/12 05:47:42;;;;;;;0.70;0.70;;;4.90;56.20;;;4.40;40.16;95076.22;5009545;28;20279;-84
2022/04/12 05:50:12;;;;;;;0.80;0.80;;;5.00;56.30;;;4.49;40.09;95083.13;5055377;28;20223;-84
2022/04/12 05:52:40;;;;;;;0.68;0.68;;;5.00;56.20;;;4.60;39.93;95084.69;5029472;28;20680;-85
2022/04/12 05:55:17;;;;;;;0.70;0.70;;;5.20;56.30;;;4.69;40.18;95092.53;5036841;28;20635;-85
2022/04/12 05:58:04;;;;;;;0.70;0.70;;;5.30;56.70;;;4.76;39.93;95093.56;5003887;28;20295;-84
2022/04/12 06:00:33;;;;;;;0.75;0.75;;;5.30;57.10;;;4.84;40.35;95088.44;5040610;28;20220;-83
2022/04/12 06:03:02;;;;;;;0.70;0.70;;;5.40;56.30;;;4.94;40.02;95094.34;5026163;28;20192;-84
2022/04/12 06:05:32;;;;;;;0.60;0.60;;;5.50;56.10;;;5.01;40.20;95086.75;5049519;28;20220;-83
2022/04/12 06:08:00;;;;;;;0.70;0.70;;;5.60;56.30;;;5.13;40.04;95092.53;5054261;28;20192;-85
2022/04/12 06:10:27;;;;;;;0.60;0.60;;;5.60;56.10;;;5.16;40.03;95079.19;5038321;28;20301;-84
2022/04/12 06:12:59;;;;;;;0.70;0.70;;;5.70;56.20;;;5.29;39.88;95086.59;5048845;28;20635;-82
2022/04/12 06:15:27;;;;;;;0.80;0.80;;;5.80;56.20;;;5.36;40.05;95084.16;5039488;28;20682;-83
2022/04/12 06:17:54;;;;;;;0.80;0.80;;;5.90;56.20;;;5.37;39.92;95078.00;5038957;28;20290;-82
2022/04/12 06:20:21;;;;;;;0.70;0.70;;;5.90;56.00;;;5.50;40.19;95098.41;5041550;28;20341;-83
2022/04/12 06:22:48;;;;;;;0.70;0.70;;;6.00;56.00;;;5.56;40.07;95106.38;5036132;28;20193;-83
2022/04/12 06:25:20;;;;;;;0.70;0.70;;;6.10;56.20;;;5.64;39.71;95108.22;5041631;28;20256;-81
2022/04/12 06:27:52;;;;;;;0.77;0.77;;;6.20;56.30;;;5.72;39.86;95117.84;5026694;28;20215;-83
2022/04/12 06:30:24;;;;;;;0.70;0.70;;;6.20;56.30;;;5.80;40.25;95117.88;5032852;28;20208;-84
2022/04/12 06:32:51;;;;;;;0.70;0.70;;;6.30;56.20;;;5.85;39.79;95113.00;5003107;28;20184;-84
2022/04/12 06:35:20;;;;;;;0.70;0.70;;;6.40;56.20;;;5.99;39.68;95122.03;5034767;28;20224;-81
2022/04/12 06:37:53;;;;;;;0.70;0.70;;;6.50;56.20;;;6.07;39.62;95114.25;5003233;28;20226;-85
2022/04/12 06:40:21;;;;;;;0.60;0.60;;;6.50;56.20;;;6.20;39.89;95131.19;5010512;28;20216;-84
2022/04/12 06:42:50;;;;;;;0.70;0.70;;;6.60;56.30;;;6.30;39.75;95136.28;5063243;28;20279;-84
2022/04/12 06:45:17;;;;;;;0.70;0.70;;;6.60;56.70;;;6.35;39.97;95131.41;5035862;28;20253;-85
2022/04/12 06:47:52;;;;;;;0.70;0.70;;;6.80;56.30;;;6.46;39.75;95133.72;5058691;28;20215;-85
2022/04/12 06:50:19;;;;;;;0.80;0.80;;;6.90;56.30;;;6.56;40.03;95126.53;5041833;28;20227;-85
2022/04/12 06:52:47;;;;;;;0.60;0.60;;;6.90;56.30;;;6.66;39.78;95136.00;5027867;28;20600;-84
2022/04/12 06:55:16;;;;;;;0.60;0.60;;;7.00;56.40;;;6.78;39.81;95141.72;5059295;28;20281;-83
2022/04/12 06:57:43;;;;;;;0.60;0.60;;;7.10;56.50;;;6.93;39.95;95142.69;5041312;28;20201;-84
2022/04/12 07:00:11;;;;;;;0.70;0.70;;;7.20;56.50;;;7.02;39.77;95131.28;5063125;28;20222;-83
2022/04/12 07:02:38;;;;;;;0.60;0.60;;;7.30;56.60;;;7.19;40.12;95145.13;5019513;28;20566;-84
2022/04/12 07:05:07;;;;;;;0.50;0.50;;;7.40;56.60;;;7.30;39.92;95128.31;5035227;28;20665;-83
2022/04/12 07:07:40;;;;;;;0.60;0.60;;;7.60;56.70;;;7.43;40.00;95134.81;5035078;28;20231;-84
2022/04/12 07:10:10;;;;;;;0.70;0.70;;;7.60;56.80;;;7.52;39.73;95129.41;5040309;28;20227;-84
2022/04/12 07:12:38;;;;;;;0.50;0.50;;;7.80;56.60;;;7.63;39.90;95130.84;5034211;28;20522;-85
2022/04/12 07:15:10;;;;;;;0.50;0.50;;;7.90;56.70;;;7.79;39.94;95137.81;5033162;28;20227;-84
2022/04/12 07:17:37;;;;;;;0.75;0.75;;;8.00;56.80;;;7.87;39.56;95134.34;5042989;28;20188;-83
2022/04/12 07:20:08;;;;;;;0.50;0.50;;;8.10;56.50;;;8.00;39.72;95133.81;5001039;28;20232;-85
2022/04/12 07:22:38;;;;;;;0.57;0.57;;;8.20;56.60;;;8.11;39.53;95133.44;5009919;28;20205;-84
2022/04/12 07:25:06;;;;;;;0.50;0.50;;;8.30;56.80;;;8.26;39.53;95133.50;5033871;28;20224;-85
2022/04/12 07:27:36;;;;;;;0.50;0.50;;;8.40;56.60;;;8.37;39.69;95134.13;5025910;28;20740;-84
2022/04/12 07:30:08;;;;;;;0.50;0.50;;;8.50;56.40;;;8.51;39.70;95132.59;5058350;28;20649;-84
2022/04/12 07:32:35;;;;;;;0.60;0.60;;;8.60;56.60;;;8.61;39.41;95134.00;5056159;28;20215;-84
2022/04/12 07:35:03;;;;;;;0.50;0.50;;;8.80;56.40;;;8.74;39.40;95136.03;5041821;28;20219;-83
2022/04/12 07:37:30;;;;;;;0.50;0.50;;;8.90;56.40;;;8.76;39.25;95123.63;5009197;28;20293;-83
2022/04/12 07:39:57;;;;;;;0.60;0.60;;;9.00;56.30;;;8.94;39.59;95132.94;5050193;28;20247;-83
2022/04/12 07:42:24;;;;;;;0.70;0.70;;;9.10;56.50;;;9.04;39.51;95133.50;5030777;28;20279;-84
2022/04/12 07:44:51;;;;;;;0.70;0.70;;;9.20;56.50;;;9.15;39.32;95132.28;5043397;28;20287;-82
2022/04/12 07:47:19;;;;;;;0.50;0.50;;;9.30;56.40;;;9.24;39.62;95119.91;5050421;28;20278;-84
2022/04/12 07:49:47;;;;;;;0.55;0.55;;;9.40;56.60;;;9.38;39.75;95129.59;5017424;28;20228;-84
2022/04/12 07:52:17;;;;;;;0.60;0.60;;;9.50;56.60;;;9.48;39.40;95115.44;5027677;28;20616;-83
2022/04/12 07:54:44;;;;;;;0.50;0.50;;;9.60;56.60;;;9.63;39.35;95118.06;5053149;28;20222;-84
2022/04/12 07:57:11;;;;;;;0.70;0.70;;;9.70;56.40;;;9.74;39.59;95126.28;5033633;28;20212;-84
2022/04/12 07:59:38;;;;;;;0.80;0.80;;;9.80;56.70;;;9.85;39.15;95124.19;5032346;28;20208;-85
2022/04/12 08:02:06;;;;;;;0.50;0.50;;;9.90;56.40;;;9.91;39.53;95119.06;5029639;28;20287;-86
2022/04/12 08:04:34;;;;;;;0.50;0.50;;;10.00;54.60;;;10.10;39.19;95135.19;5032973;28;20547;-84
2022/04/12 08:07:01;;;;;;;0.70;0.70;;;10.10;54.30;;;10.21;39.21;95132.09;5046305;28;20220;-84
2022/04/12 08:09:28;;;;;;;0.50;0.50;;;10.30;54.50;;;10.17;38.92;95116.94;5016582;28;20219;-85
2022/04/12 08:11:55;;;;;;;0.60;0.60;;;10.40;54.50;;;10.36;39.19;95123.38;5012934;28;20220;-85
2022/04/12 08:14:22;;;;;;;0.60;0.60;;;10.50;54.60;;;10.57;39.00;95130.53;5056633;28;20228;-85
2022/04/12 08:16:51;;;;;;;0.57;0.57;;;10.50;54.60;;;10.66;39.02;95128.59;5025539;28;20200;-85
2022/04/12 08:19:18;;;;;;;0.50;0.50;;;10.70;54.80;;;10.77;39.12;95135.94;5047535;28;20306;-83
2022/04/12 08:21:45;;;;;;;0.70;0.70;;;10.80;54.90;;;10.91;38.99;95125.56;5031784;28;20192;-83
2022/04/12 08:24:12;;;;;;;0.70;0.70;;;10.90;55.00;;;10.86;38.93;95103.34;5034754;28;20775;-84
2022/04/12 08:26:39;;;;;;;0.70;0.70;;;11.00;55.20;;;11.16;38.93;95123.38;5031851;28;20597;-83
2022/04/12 08:29:06;;;;;;;0.70;0.70;;;11.10;55.20;;;11.27;38.83;95135.19;5062260;28;20208;-84
2022/04/12 08:31:34;;;;;;;0.70;0.70;;;11.20;54.90;;;11.21;38.63;95095.53;5010160;28;20204;-85
2022/04/12 08:34:01;;;;;;;0.50;0.50;;;11.30;55.00;;;11.47;38.68;95109.03;4992140;28;20215;-84
2022/04/12 08:36:28;;;;;;;0.70;0.70;;;11.50;55.00;;;11.64;38.61;95118.22;5047055;28;20208;-85
2022/04/12 08:38:55;;;;;;;0.70;0.70;;;11.60;55.10;;;11.71;38.33;95115.66;5040658;28;20216;-85
2022/04/12 08:41:24;;;;;;;0.55;0.55;;;11.70;55.00;;;11.89;38.61;95112.53;5025979;28;20604;-84
2022/04/12 08:43:56;;;;;;;0.50;0.50;;;11.80;54.80;;;12.03;38.21;95115.25;5018870;28;20215;-84
2022/04/12 08:46:25;;;;;;;0.50;0.50;;;12.00;54.90;;;12.17;38.30;95106.41;5034680;28;20255;-83
2022/04/12 08:48:56;;;;;;;0.50;0.50;;;12.00;54.50;;;12.27;38.08;95111.28;5046939;28;20222;-85
2022/04/12 08:51:27;;;;;;;0.63;0.63;;;12.10;54.40;;;12.40;38.07;95111.34;5026594;28;20261;-84
2022/04/12 08:53:58;;;;;;;0.60;0.60;;;12.30;54.30;;;12.51;38.05;95103.84;5031482;28;20253;-85
2022/04/12 08:56:28;;;;;;;0.50;0.50;;;12.40;54.10;;;12.59;37.95;95109.75;5003012;28;20626;-84
2022/04/12 08:58:56;;;;;;;0.50;0.50;;;12.50;54.10;;;12.67;37.77;95103.50;5018260;28;20216;-85
2022/04/12 09:01:41;;;;;;;0.50;0.50;;;12.60;54.30;;;12.71;37.75;95088.13;5049586;28;20214;-85
2022/04/12 09:04:09;;;;;;;0.60;0.60;;;12.70;54.00;;;12.90;37.92;95103.13;5034980;28;20652;-84
2022/04/12 09:06:53;;;;;;;0.60;0.60;;;12.80;53.90;;;12.97;37.70;95098.69;5050473;28;20218;-85
2022/04/12 09:09:29;;;;;;;0.60;0.60;;;12.90;53.80;;;13.09;37.54;95105.97;5034744;28;20220;-84
2022/04/12 09:12:08;;;;;;;0.60;0.60;;;13.00;53.80;;;13.17;37.46;95100.50;5048074;28;20250;-83
2022/04/12 09:14:57;;;;;;;0.55;0.55;;;13.10;53.80;;;13.25;37.15;95108.16;5020581;28;20212;-84
2022/04/12 09:17:36;;;;;;;0.70;0.70;;;13.20;53.50;;;13.35;37.25;95094.59;5033396;28;20204;-84
2022/04/12 09:20:18;;;;;;;0.50;0.50;;;13.30;53.40;;;13.37;37.18;95081.22;5040285;28;20214;-85
2022/04/12 09:22:46;;;;;;;0.52;0.52;;;13.40;53.40;;;13.50;36.92;95089.16;5008443;28;20214;-84
2022/04/12 09:25:16;;;;;;;0.60;0.60;;;13.40;53.20;;;13.58;37.18;95082.84;5072198;28;20280;-85
2022/04/12 09:27:49;;;;;;;0.50;0.50;;;13.60;53.40;;;13.71;36.98;95092.56;5040713;28;20210;-84
2022/04/12 09:30:18;;;;;;;0.60;0.60;;;13.60;53.50;;;13.77;36.66;95081.97;5026044;28;20219;-86
2022/04/12 09:32:47;;;;;;;0.50;0.50;;;13.70;54.70;;;13.95;37.02;95093.66;5033580;28;20563;-84
2022/04/12 09:35:15;;;;;;;0.70;0.70;;;13.80;53.70;;;14.04;36.83;95095.06;5036944;28;20638;-84
2022/04/12 09:37:45;;;;;;;0.70;0.70;;;13.90;53.20;;;14.12;36.46;95087.94;5000652;28;20197;-85
2022/04/12 09:40:14;;;;;;;0.50;0.50;;;14.00;53.20;;;14.19;36.78;95083.44;5014275;28;20677;-84
2022/04/12 09:42:51;;;;;;;0.50;0.50;;;14.10;53.20;;;14.32;36.47;95093.13;5040497;28;20720;-85
2022/04/12 09:45:27;;;;;;;0.50;0.50;;;14.10;53.00;;;14.40;36.58;95098.97;5032360;28;20298;-83
2022/04/12 09:48:06;;;;;;;0.70;0.70;;;14.30;54.30;;;14.45;36.39;95079.06;5020883;28;20637;-85
2022/04/12 09:51:00;;;;;;;0.70;0.70;;;14.30;52.70;;;14.49;36.25;95078.44;5019794;28;20229;-83
2022/04/12 09:53:42;;;;;;;0.70;0.70;;;14.50;52.80;;;14.64;36.05;95078.13;5016633;28;20211;-83
2022/04/12 09:56:22;;;;;;;0.40;0.40;;;14.50;52.20;;;14.69;35.78;95075.69;5013540;28;20188;-84
2022/04/12 09:58:56;;;;;;;0.70;0.70;;;14.60;52.00;;;14.77;35.97;95077.28;5032773;28;20778;-84
2022/04/12 10:01:24;;;;;;;0.50;0.50;;;14.60;52.40;;;14.84;36.04;95075.41;5044891;28;20241;-84
2022/04/12 10:03:57;;;;;;;0.70;0.70;;;14.70;52.40;;;14.87;35.82;95072.31;5040011;28;20208;-84
2022/04/12 10:06:27;;;;;;;0.70;0.70;;;14.80;52.10;;;14.98;35.79;95077.94;5035593;28;20224;-82
2022/04/12 10:09:04;;;;;;;0.60;0.60;;;14.80;52.10;;;15.03;35.55;95075.44;5016903;28;20215;-83
2022/04/12 10:11:31;;;;;;;0.50;0.50;;;14.90;51.70;;;15.10;35.65;95070.91;5038406;28;20199;-84
2022/04/12 10:14:02;;;;;;;0.70;0.70;;;15.00;52.10;;;15.07;35.51;95058.13;5033304;28;20306;-84
2022/04/12 10:16:29;;;;;;;0.40;0.40;;;15.10;51.90;;;15.23;35.23;95072.63;5050154;28;20203;-84
2022/04/12 10:19:01;;;;;;;0.50;0.50;;;15.10;51.90;;;15.30;35.28;95065.44;5047930;28;20269;-84
2022/04/12 10:21:29;;;;;;;0.60;0.60;;;15.20;51.60;;;15.40;34.95;95072.88;5041481;28;20260;-84
2022/04/12 10:23:59;;;;;;;0.50;0.50;;;15.20;51.60;;;15.48;35.30;95058.59;5034637;28;20581;-83
2022/04/12 10:26:27;;;;;;;0.40;0.40;;;15.30;51.60;;;15.55;35.28;95056.69;5035279;28;20719;-83
2022/04/12 10:29:00;;;;;;;0.50;0.50;;;15.40;51.70;;;15.62;35.00;95056.59;5017668;28;20233;-83
2022/04/12 10:31:32;;;;;;;0.50;0.50;;;15.40;51.30;;;15.67;35.10;95047.00;5017177;28;20383;-83
2022/04/12 10:34:14;;;;;;;0.50;0.50;;;15.50;51.50;;;15.76;34.85;95038.75;5042030;28;20215;-83
2022/04/12 10:37:00;;;;;;;0.70;0.70;;;15.60;51.40;;;15.74;34.41;95027.59;5035343;28;20211;-82
2022/04/12 10:39:51;;;;;;;0.70;0.70;;;15.70;50.60;;;15.86;34.41;95038.28;5042651;28;20215;-83